sensor_id;sensor_type;location;lat;lon;timestamp;P1;durP1;ratioP1;P2;durP2;ratioP2
48114;SDS011;33903;44.704;10.448;2024-03-22T00:01:10;36.85;;;25.75;;
48114;SDS011;33903;44.704;10.448;2024-03-22T00:04:14;40.33;;;25.75;;
48114;SDS011;33903;44.704;10.448;2024-03-22T00:07:19;38.53;;;24.77;;
48114;SDS011;33903;44.704;10.448;2024-03-22T00:10:23;37.33;;;25.52;;
48114;SDS011;33903;44.704;10.448;2024-03-22T00:13:28;46.65;;;26.95;;
48114;SDS011;33903;44.704;10.448;2024-03-22T00:16:33;38.30;;;25.88;;
48114;SDS011;33903;44.704;10.448;2024-03-22T00:19:37;33.80;;;23.70;;
48114;SDS011;33903;44.704;10.448;2024-03-22T00:22:42;32.55;;;21.65;;
48114;SDS011;33903;44.704;10.448;2024-03-22T00:25:47;33.38;;;20.50;;
48114;SDS011;33903;44.704;10.448;2024-03-22T00:28:51;30.30;;;21.02;;
48114;SDS011;33903;44.704;10.448;2024-03-22T00:31:55;28.42;;;20.17;;
48114;SDS011;33903;44.704;10.448;2024-03-22T00:35:00;32.20;;;20.00;;
48114;SDS011;33903;44.704;10.448;2024-03-22T00:38:05;28.20;;;19.95;;
48114;SDS011;33903;44.704;10.448;2024-03-22T00:41:09;29.77;;;20.30;;
48114;SDS011;33903;44.704;10.448;2024-03-22T00:44:14;31.98;;;21.20;;
48114;SDS011;33903;44.704;10.448;2024-03-22T00:47:18;30.35;;;20.80;;
48114;SDS011;33903;44.704;10.448;2024-03-22T00:50:23;33.92;;;21.48;;
48114;SDS011;33903;44.704;10.448;2024-03-22T00:53:27;31.90;;;21.60;;
48114;SDS011;33903;44.704;10.448;2024-03-22T00:56:32;33.83;;;22.00;;
48114;SDS011;33903;44.704;10.448;2024-03-22T00:59:37;35.92;;;22.60;;
48114;SDS011;33903;44.704;10.448;2024-03-22T01:02:41;32.22;;;20.85;;
48114;SDS011;33903;44.704;10.448;2024-03-22T01:05:46;32.83;;;20.58;;
48114;SDS011;33903;44.704;10.448;2024-03-22T01:08:50;33.05;;;21.42;;
48114;SDS011;33903;44.704;10.448;2024-03-22T01:11:57;30.42;;;20.65;;
48114;SDS011;33903;44.704;10.448;2024-03-22T01:15:03;35.65;;;20.63;;
48114;SDS011;33903;44.704;10.448;2024-03-22T01:18:08;30.83;;;20.88;;
48114;SDS011;33903;44.704;10.448;2024-03-22T01:21:12;29.13;;;19.85;;
48114;SDS011;33903;44.704;10.448;2024-03-22T01:24:17;27.23;;;19.80;;
48114;SDS011;33903;44.704;10.448;2024-03-22T01:27:21;31.25;;;20.67;;
48114;SDS011;33903;44.704;10.448;2024-03-22T01:30:26;29.45;;;21.30;;
48114;SDS011;33903;44.704;10.448;2024-03-22T01:33:33;30.17;;;19.05;;
48114;SDS011;33903;44.704;10.448;2024-03-22T01:36:38;30.02;;;19.98;;
48114;SDS011;33903;44.704;10.448;2024-03-22T01:39:42;31.60;;;19.92;;
48114;SDS011;33903;44.704;10.448;2024-03-22T01:42:47;33.15;;;20.17;;
48114;SDS011;33903;44.704;10.448;2024-03-22T01:45:52;28.95;;;19.45;;
48114;SDS011;33903;44.704;10.448;2024-03-22T01:48:56;32.85;;;20.95;;
48114;SDS011;33903;44.704;10.448;2024-03-22T01:52:01;28.85;;;19.70;;
48114;SDS011;33903;44.704;10.448;2024-03-22T01:55:07;34.13;;;20.73;;
48114;SDS011;33903;44.704;10.448;2024-03-22T01:58:12;30.45;;;20.95;;
48114;SDS011;33903;44.704;10.448;2024-03-22T02:01:17;29.15;;;19.63;;
48114;SDS011;33903;44.704;10.448;2024-03-22T02:04:21;28.27;;;19.45;;
48114;SDS011;33903;44.704;10.448;2024-03-22T02:07:28;34.70;;;21.15;;
48114;SDS011;33903;44.704;10.448;2024-03-22T02:10:34;30.88;;;20.13;;
48114;SDS011;33903;44.704;10.448;2024-03-22T02:13:39;33.40;;;20.13;;
48114;SDS011;33903;44.704;10.448;2024-03-22T02:16:43;28.70;;;20.05;;
48114;SDS011;33903;44.704;10.448;2024-03-22T02:19:49;29.90;;;20.13;;
48114;SDS011;33903;44.704;10.448;2024-03-22T02:22:53;26.60;;;18.45;;
48114;SDS011;33903;44.704;10.448;2024-03-22T02:25:58;28.25;;;19.48;;
48114;SDS011;33903;44.704;10.448;2024-03-22T02:29:02;33.60;;;20.85;;
48114;SDS011;33903;44.704;10.448;2024-03-22T02:32:07;31.08;;;19.50;;
48114;SDS011;33903;44.704;10.448;2024-03-22T02:35:11;28.60;;;19.63;;
48114;SDS011;33903;44.704;10.448;2024-03-22T02:38:16;30.40;;;21.10;;
48114;SDS011;33903;44.704;10.448;2024-03-22T02:41:21;29.58;;;19.02;;
48114;SDS011;33903;44.704;10.448;2024-03-22T02:44:25;32.00;;;20.15;;
48114;SDS011;33903;44.704;10.448;2024-03-22T02:47:30;31.23;;;20.45;;
48114;SDS011;33903;44.704;10.448;2024-03-22T02:50:35;30.58;;;20.38;;
48114;SDS011;33903;44.704;10.448;2024-03-22T02:53:41;31.35;;;20.77;;
48114;SDS011;33903;44.704;10.448;2024-03-22T02:56:45;28.83;;;19.80;;
48114;SDS011;33903;44.704;10.448;2024-03-22T02:59:50;33.78;;;21.85;;
48114;SDS011;33903;44.704;10.448;2024-03-22T03:02:53;35.33;;;22.25;;
48114;SDS011;33903;44.704;10.448;2024-03-22T03:05:58;36.95;;;23.42;;
48114;SDS011;33903;44.704;10.448;2024-03-22T03:09:03;37.08;;;24.27;;
48114;SDS011;33903;44.704;10.448;2024-03-22T03:12:12;40.90;;;26.10;;
48114;SDS011;33903;44.704;10.448;2024-03-22T03:15:17;42.72;;;26.58;;
48114;SDS011;33903;44.704;10.448;2024-03-22T03:18:21;38.92;;;26.15;;
48114;SDS011;33903;44.704;10.448;2024-03-22T03:21:26;41.25;;;26.13;;
48114;SDS011;33903;44.704;10.448;2024-03-22T03:24:30;42.90;;;27.75;;
48114;SDS011;33903;44.704;10.448;2024-03-22T03:27:35;43.63;;;26.92;;
48114;SDS011;33903;44.704;10.448;2024-03-22T03:30:40;44.92;;;27.30;;
48114;SDS011;33903;44.704;10.448;2024-03-22T03:33:44;46.50;;;29.55;;
48114;SDS011;33903;44.704;10.448;2024-03-22T03:36:48;47.65;;;29.15;;
48114;SDS011;33903;44.704;10.448;2024-03-22T03:39:52;42.97;;;27.60;;
48114;SDS011;33903;44.704;10.448;2024-03-22T03:42:57;39.90;;;26.60;;
48114;SDS011;33903;44.704;10.448;2024-03-22T03:46:01;45.15;;;27.00;;
48114;SDS011;33903;44.704;10.448;2024-03-22T03:49:06;41.08;;;24.67;;
48114;SDS011;33903;44.704;10.448;2024-03-22T03:52:10;41.33;;;23.83;;
48114;SDS011;33903;44.704;10.448;2024-03-22T03:55:14;38.85;;;23.70;;
48114;SDS011;33903;44.704;10.448;2024-03-22T03:58:19;36.63;;;22.13;;
48114;SDS011;33903;44.704;10.448;2024-03-22T04:01:23;40.90;;;21.73;;
48114;SDS011;33903;44.704;10.448;2024-03-22T04:04:28;33.40;;;21.50;;
48114;SDS011;33903;44.704;10.448;2024-03-22T04:07:33;37.20;;;22.48;;
48114;SDS011;33903;44.704;10.448;2024-03-22T04:10:37;35.80;;;22.48;;
48114;SDS011;33903;44.704;10.448;2024-03-22T04:13:42;33.90;;;21.83;;
48114;SDS011;33903;44.704;10.448;2024-03-22T04:16:46;36.97;;;22.42;;
48114;SDS011;33903;44.704;10.448;2024-03-22T04:19:51;33.30;;;20.80;;
48114;SDS011;33903;44.704;10.448;2024-03-22T04:22:55;38.67;;;21.65;;
48114;SDS011;33903;44.704;10.448;2024-03-22T04:26:00;37.35;;;22.30;;
48114;SDS011;33903;44.704;10.448;2024-03-22T04:29:05;33.85;;;21.95;;
48114;SDS011;33903;44.704;10.448;2024-03-22T04:32:09;34.42;;;22.17;;
48114;SDS011;33903;44.704;10.448;2024-03-22T04:35:14;35.03;;;21.77;;
48114;SDS011;33903;44.704;10.448;2024-03-22T04:38:18;34.75;;;21.80;;
48114;SDS011;33903;44.704;10.448;2024-03-22T04:41:23;33.38;;;20.90;;
48114;SDS011;33903;44.704;10.448;2024-03-22T04:44:27;34.53;;;21.58;;
48114;SDS011;33903;44.704;10.448;2024-03-22T04:47:33;38.13;;;21.98;;
48114;SDS011;33903;44.704;10.448;2024-03-22T04:50:37;36.63;;;21.67;;
48114;SDS011;33903;44.704;10.448;2024-03-22T04:53:42;29.75;;;21.05;;
48114;SDS011;33903;44.704;10.448;2024-03-22T04:56:46;37.50;;;21.80;;
48114;SDS011;33903;44.704;10.448;2024-03-22T04:59:50;36.50;;;20.70;;
48114;SDS011;33903;44.704;10.448;2024-03-22T05:02:55;35.83;;;21.55;;
48114;SDS011;33903;44.704;10.448;2024-03-22T05:05:59;36.60;;;21.08;;
48114;SDS011;33903;44.704;10.448;2024-03-22T05:09:07;29.25;;;21.60;;
48114;SDS011;33903;44.704;10.448;2024-03-22T05:12:14;38.13;;;22.23;;
48114;SDS011;33903;44.704;10.448;2024-03-22T05:15:18;36.78;;;22.77;;
48114;SDS011;33903;44.704;10.448;2024-03-22T05:18:23;32.65;;;22.10;;
48114;SDS011;33903;44.704;10.448;2024-03-22T05:21:27;35.30;;;22.10;;
48114;SDS011;33903;44.704;10.448;2024-03-22T05:24:32;37.00;;;22.95;;
48114;SDS011;33903;44.704;10.448;2024-03-22T05:27:36;34.17;;;22.00;;
48114;SDS011;33903;44.704;10.448;2024-03-22T05:30:41;33.72;;;21.58;;
48114;SDS011;33903;44.704;10.448;2024-03-22T05:33:45;35.38;;;22.60;;
48114;SDS011;33903;44.704;10.448;2024-03-22T05:36:50;37.05;;;21.48;;
48114;SDS011;33903;44.704;10.448;2024-03-22T05:39:55;36.22;;;21.40;;
48114;SDS011;33903;44.704;10.448;2024-03-22T05:43:00;37.60;;;22.50;;
48114;SDS011;33903;44.704;10.448;2024-03-22T05:46:05;31.13;;;21.52;;
48114;SDS011;33903;44.704;10.448;2024-03-22T05:49:09;30.73;;;20.55;;
48114;SDS011;33903;44.704;10.448;2024-03-22T05:52:14;33.47;;;20.83;;
48114;SDS011;33903;44.704;10.448;2024-03-22T05:55:18;35.67;;;21.65;;
48114;SDS011;33903;44.704;10.448;2024-03-22T05:58:23;32.03;;;21.27;;
48114;SDS011;33903;44.704;10.448;2024-03-22T06:01:27;32.00;;;20.17;;
48114;SDS011;33903;44.704;10.448;2024-03-22T06:04:32;30.58;;;20.75;;
48114;SDS011;33903;44.704;10.448;2024-03-22T06:07:36;31.25;;;20.90;;
48114;SDS011;33903;44.704;10.448;2024-03-22T06:10:46;31.75;;;21.00;;
48114;SDS011;33903;44.704;10.448;2024-03-22T06:13:50;27.90;;;19.45;;
48114;SDS011;33903;44.704;10.448;2024-03-22T06:16:55;29.48;;;19.08;;
48114;SDS011;33903;44.704;10.448;2024-03-22T06:19:59;35.20;;;19.85;;
48114;SDS011;33903;44.704;10.448;2024-03-22T06:23:04;27.70;;;19.48;;
48114;SDS011;33903;44.704;10.448;2024-03-22T06:26:09;28.75;;;20.02;;
48114;SDS011;33903;44.704;10.448;2024-03-22T06:29:13;29.25;;;20.02;;
48114;SDS011;33903;44.704;10.448;2024-03-22T06:32:20;30.48;;;18.95;;
48114;SDS011;33903;44.704;10.448;2024-03-22T06:35:24;29.52;;;20.08;;
48114;SDS011;33903;44.704;10.448;2024-03-22T06:38:32;31.80;;;20.80;;
48114;SDS011;33903;44.704;10.448;2024-03-22T06:41:36;26.77;;;19.00;;
48114;SDS011;33903;44.704;10.448;2024-03-22T06:44:41;29.27;;;17.95;;
48114;SDS011;33903;44.704;10.448;2024-03-22T06:47:45;30.67;;;19.08;;
48114;SDS011;33903;44.704;10.448;2024-03-22T06:50:50;40.47;;;27.05;;
48114;SDS011;33903;44.704;10.448;2024-03-22T06:53:54;32.75;;;20.55;;
48114;SDS011;33903;44.704;10.448;2024-03-22T06:56:58;28.60;;;18.73;;
48114;SDS011;33903;44.704;10.448;2024-03-22T07:00:03;24.20;;;17.58;;
48114;SDS011;33903;44.704;10.448;2024-03-22T07:03:08;27.92;;;18.00;;
48114;SDS011;33903;44.704;10.448;2024-03-22T07:06:13;25.95;;;17.20;;
48114;SDS011;33903;44.704;10.448;2024-03-22T07:09:18;23.55;;;16.92;;
48114;SDS011;33903;44.704;10.448;2024-03-22T07:12:22;25.38;;;17.85;;
48114;SDS011;33903;44.704;10.448;2024-03-22T07:15:26;25.67;;;18.30;;
48114;SDS011;33903;44.704;10.448;2024-03-22T07:18:31;26.27;;;18.35;;
48114;SDS011;33903;44.704;10.448;2024-03-22T07:21:36;25.38;;;17.20;;
48114;SDS011;33903;44.704;10.448;2024-03-22T07:24:40;24.75;;;18.63;;
48114;SDS011;33903;44.704;10.448;2024-03-22T07:27:44;25.42;;;16.80;;
48114;SDS011;33903;44.704;10.448;2024-03-22T07:30:49;24.17;;;17.00;;
48114;SDS011;33903;44.704;10.448;2024-03-22T07:33:54;25.35;;;16.83;;
48114;SDS011;33903;44.704;10.448;2024-03-22T07:36:59;25.58;;;17.98;;
48114;SDS011;33903;44.704;10.448;2024-03-22T07:40:04;28.60;;;16.92;;
48114;SDS011;33903;44.704;10.448;2024-03-22T07:43:09;23.10;;;17.63;;
48114;SDS011;33903;44.704;10.448;2024-03-22T07:46:14;23.27;;;17.27;;
48114;SDS011;33903;44.704;10.448;2024-03-22T07:49:18;25.85;;;18.13;;
48114;SDS011;33903;44.704;10.448;2024-03-22T07:52:23;22.52;;;16.55;;
48114;SDS011;33903;44.704;10.448;2024-03-22T07:55:28;22.95;;;16.65;;
48114;SDS011;33903;44.704;10.448;2024-03-22T07:58:33;26.23;;;17.67;;
48114;SDS011;33903;44.704;10.448;2024-03-22T08:01:38;20.17;;;15.40;;
48114;SDS011;33903;44.704;10.448;2024-03-22T08:04:42;17.88;;;14.93;;
48114;SDS011;33903;44.704;10.448;2024-03-22T08:07:47;19.13;;;15.10;;
48114;SDS011;33903;44.704;10.448;2024-03-22T08:10:51;19.83;;;16.15;;
48114;SDS011;33903;44.704;10.448;2024-03-22T08:13:56;18.58;;;15.13;;
48114;SDS011;33903;44.704;10.448;2024-03-22T08:17:07;21.73;;;17.20;;
48114;SDS011;33903;44.704;10.448;2024-03-22T08:20:13;21.75;;;16.45;;
48114;SDS011;33903;44.704;10.448;2024-03-22T08:23:17;19.92;;;16.55;;
48114;SDS011;33903;44.704;10.448;2024-03-22T08:26:24;19.55;;;16.08;;
48114;SDS011;33903;44.704;10.448;2024-03-22T08:29:28;21.92;;;16.20;;
48114;SDS011;33903;44.704;10.448;2024-03-22T08:32:33;21.10;;;16.55;;
48114;SDS011;33903;44.704;10.448;2024-03-22T08:35:37;20.98;;;16.10;;
48114;SDS011;33903;44.704;10.448;2024-03-22T08:38:42;21.27;;;17.10;;
48114;SDS011;33903;44.704;10.448;2024-03-22T08:41:47;23.35;;;18.52;;
48114;SDS011;33903;44.704;10.448;2024-03-22T08:44:52;23.30;;;17.15;;
48114;SDS011;33903;44.704;10.448;2024-03-22T08:47:57;20.20;;;15.68;;
48114;SDS011;33903;44.704;10.448;2024-03-22T08:51:01;20.90;;;15.98;;
48114;SDS011;33903;44.704;10.448;2024-03-22T08:54:07;23.83;;;18.02;;
48114;SDS011;33903;44.704;10.448;2024-03-22T08:57:11;27.00;;;17.60;;
48114;SDS011;33903;44.704;10.448;2024-03-22T09:00:16;22.25;;;17.42;;
48114;SDS011;33903;44.704;10.448;2024-03-22T09:03:21;21.08;;;18.23;;
48114;SDS011;33903;44.704;10.448;2024-03-22T09:06:25;22.88;;;18.65;;
48114;SDS011;33903;44.704;10.448;2024-03-22T09:09:30;21.35;;;17.17;;
48114;SDS011;33903;44.704;10.448;2024-03-22T09:12:35;17.73;;;15.32;;
48114;SDS011;33903;44.704;10.448;2024-03-22T09:15:40;22.17;;;18.23;;
48114;SDS011;33903;44.704;10.448;2024-03-22T09:18:44;17.90;;;15.27;;
48114;SDS011;33903;44.704;10.448;2024-03-22T09:21:49;19.27;;;16.08;;
48114;SDS011;33903;44.704;10.448;2024-03-22T09:24:53;19.48;;;16.48;;
48114;SDS011;33903;44.704;10.448;2024-03-22T09:27:59;24.83;;;18.15;;
48114;SDS011;33903;44.704;10.448;2024-03-22T09:31:06;20.27;;;16.77;;
48114;SDS011;33903;44.704;10.448;2024-03-22T09:34:14;22.67;;;18.17;;
48114;SDS011;33903;44.704;10.448;2024-03-22T09:37:20;25.20;;;18.58;;
48114;SDS011;33903;44.704;10.448;2024-03-22T09:40:24;24.52;;;18.55;;
48114;SDS011;33903;44.704;10.448;2024-03-22T09:43:30;24.30;;;18.85;;
48114;SDS011;33903;44.704;10.448;2024-03-22T09:46:36;24.92;;;18.90;;
48114;SDS011;33903;44.704;10.448;2024-03-22T09:49:42;21.98;;;17.67;;
48114;SDS011;33903;44.704;10.448;2024-03-22T09:52:52;23.88;;;18.48;;
48114;SDS011;33903;44.704;10.448;2024-03-22T09:55:57;25.77;;;17.48;;
48114;SDS011;33903;44.704;10.448;2024-03-22T09:59:05;20.83;;;17.08;;
48114;SDS011;33903;44.704;10.448;2024-03-22T10:02:15;22.27;;;16.95;;
48114;SDS011;33903;44.704;10.448;2024-03-22T10:05:20;20.35;;;15.73;;
48114;SDS011;33903;44.704;10.448;2024-03-22T10:08:25;22.70;;;17.00;;
48114;SDS011;33903;44.704;10.448;2024-03-22T10:11:29;24.80;;;18.58;;
48114;SDS011;33903;44.704;10.448;2024-03-22T10:14:35;21.17;;;16.30;;
48114;SDS011;33903;44.704;10.448;2024-03-22T10:17:41;21.52;;;16.75;;
48114;SDS011;33903;44.704;10.448;2024-03-22T10:20:46;21.15;;;17.15;;
48114;SDS011;33903;44.704;10.448;2024-03-22T10:23:50;25.77;;;18.50;;
48114;SDS011;33903;44.704;10.448;2024-03-22T10:26:57;22.20;;;18.02;;
48114;SDS011;33903;44.704;10.448;2024-03-22T10:30:01;22.98;;;19.30;;
48114;SDS011;33903;44.704;10.448;2024-03-22T10:33:08;27.70;;;19.60;;
48114;SDS011;33903;44.704;10.448;2024-03-22T10:36:12;26.10;;;20.48;;
48114;SDS011;33903;44.704;10.448;2024-03-22T10:39:18;25.75;;;19.83;;
48114;SDS011;33903;44.704;10.448;2024-03-22T10:42:23;29.27;;;21.52;;
48114;SDS011;33903;44.704;10.448;2024-03-22T10:45:28;28.98;;;22.27;;
48114;SDS011;33903;44.704;10.448;2024-03-22T10:48:33;28.67;;;22.95;;
48114;SDS011;33903;44.704;10.448;2024-03-22T10:51:38;30.13;;;23.05;;
48114;SDS011;33903;44.704;10.448;2024-03-22T10:54:43;33.03;;;24.48;;
48114;SDS011;33903;44.704;10.448;2024-03-22T10:57:50;35.78;;;26.77;;
48114;SDS011;33903;44.704;10.448;2024-03-22T11:00:56;33.50;;;26.50;;
48114;SDS011;33903;44.704;10.448;2024-03-22T11:04:04;39.65;;;27.55;;
48114;SDS011;33903;44.704;10.448;2024-03-22T11:07:19;36.38;;;26.75;;
48114;SDS011;33903;44.704;10.448;2024-03-22T11:13:35;35.58;;;26.83;;
48114;SDS011;33903;44.704;10.448;2024-03-22T11:16:46;36.72;;;27.45;;
48114;SDS011;33903;44.704;10.448;2024-03-22T11:19:51;38.15;;;26.88;;
48114;SDS011;33903;44.704;10.448;2024-03-22T11:22:56;36.55;;;28.05;;
48114;SDS011;33903;44.704;10.448;2024-03-22T11:26:01;37.90;;;27.35;;
48114;SDS011;33903;44.704;10.448;2024-03-22T11:29:05;39.40;;;28.52;;
48114;SDS011;33903;44.704;10.448;2024-03-22T11:32:10;36.70;;;28.45;;
48114;SDS011;33903;44.704;10.448;2024-03-22T11:35:17;36.13;;;26.50;;
48114;SDS011;33903;44.704;10.448;2024-03-22T11:38:24;35.45;;;25.70;;
48114;SDS011;33903;44.704;10.448;2024-03-22T11:41:31;38.03;;;26.52;;
48114;SDS011;33903;44.704;10.448;2024-03-22T11:44:38;40.17;;;26.63;;
48114;SDS011;33903;44.704;10.448;2024-03-22T11:47:46;41.28;;;27.88;;
48114;SDS011;33903;44.704;10.448;2024-03-22T11:50:51;35.88;;;25.05;;
48114;SDS011;33903;44.704;10.448;2024-03-22T11:53:58;37.10;;;26.42;;
48114;SDS011;33903;44.704;10.448;2024-03-22T11:57:04;32.53;;;24.35;;
48114;SDS011;33903;44.704;10.448;2024-03-22T12:00:08;37.22;;;25.55;;
48114;SDS011;33903;44.704;10.448;2024-03-22T12:03:20;35.35;;;24.05;;
48114;SDS011;33903;44.704;10.448;2024-03-22T12:06:27;32.38;;;23.88;;
48114;SDS011;33903;44.704;10.448;2024-03-22T12:09:50;32.25;;;23.70;;
48114;SDS011;33903;44.704;10.448;2024-03-22T12:12:58;28.48;;;20.67;;
48114;SDS011;33903;44.704;10.448;2024-03-22T12:16:21;26.08;;;20.90;;
48114;SDS011;33903;44.704;10.448;2024-03-22T12:19:26;25.92;;;18.95;;
48114;SDS011;33903;44.704;10.448;2024-03-22T12:22:32;33.92;;;22.40;;
48114;SDS011;33903;44.704;10.448;2024-03-22T12:25:38;27.42;;;18.65;;
48114;SDS011;33903;44.704;10.448;2024-03-22T12:28:43;30.00;;;19.42;;
48114;SDS011;33903;44.704;10.448;2024-03-22T12:31:47;29.88;;;19.75;;
48114;SDS011;33903;44.704;10.448;2024-03-22T12:34:52;25.75;;;17.92;;
48114;SDS011;33903;44.704;10.448;2024-03-22T12:38:15;21.25;;;15.38;;
48114;SDS011;33903;44.704;10.448;2024-03-22T12:41:20;20.95;;;15.43;;
48114;SDS011;33903;44.704;10.448;2024-03-22T12:44:24;22.60;;;15.68;;
48114;SDS011;33903;44.704;10.448;2024-03-22T12:47:30;24.17;;;15.43;;
48114;SDS011;33903;44.704;10.448;2024-03-22T12:50:36;22.15;;;15.45;;
48114;SDS011;33903;44.704;10.448;2024-03-22T12:53:42;18.27;;;14.10;;
48114;SDS011;33903;44.704;10.448;2024-03-22T12:56:46;16.85;;;12.75;;
48114;SDS011;33903;44.704;10.448;2024-03-22T12:59:53;20.27;;;12.20;;
48114;SDS011;33903;44.704;10.448;2024-03-22T13:02:59;18.65;;;12.50;;
48114;SDS011;33903;44.704;10.448;2024-03-22T13:06:04;12.85;;;10.50;;
48114;SDS011;33903;44.704;10.448;2024-03-22T13:09:10;14.73;;;11.40;;
48114;SDS011;33903;44.704;10.448;2024-03-22T13:12:16;14.32;;;10.88;;
48114;SDS011;33903;44.704;10.448;2024-03-22T13:15:21;14.65;;;10.15;;
48114;SDS011;33903;44.704;10.448;2024-03-22T13:18:26;17.42;;;12.10;;
48114;SDS011;33903;44.704;10.448;2024-03-22T13:21:30;16.73;;;11.25;;
48114;SDS011;33903;44.704;10.448;2024-03-22T13:24:35;18.77;;;10.77;;
48114;SDS011;33903;44.704;10.448;2024-03-22T13:27:42;11.93;;;7.97;;
48114;SDS011;33903;44.704;10.448;2024-03-22T13:31:05;14.25;;;8.40;;
48114;SDS011;33903;44.704;10.448;2024-03-22T13:34:10;15.00;;;10.50;;
48114;SDS011;33903;44.704;10.448;2024-03-22T13:37:14;13.32;;;9.30;;
48114;SDS011;33903;44.704;10.448;2024-03-22T13:40:20;16.42;;;11.25;;
48114;SDS011;33903;44.704;10.448;2024-03-22T13:43:27;13.80;;;10.35;;
48114;SDS011;33903;44.704;10.448;2024-03-22T13:46:32;14.63;;;10.70;;
48114;SDS011;33903;44.704;10.448;2024-03-22T13:49:36;15.50;;;9.65;;
48114;SDS011;33903;44.704;10.448;2024-03-22T13:52:45;13.73;;;8.90;;
48114;SDS011;33903;44.704;10.448;2024-03-22T13:56:08;17.27;;;12.07;;
48114;SDS011;33903;44.704;10.448;2024-03-22T13:59:13;20.58;;;13.00;;
48114;SDS011;33903;44.704;10.448;2024-03-22T14:02:22;13.75;;;8.77;;
48114;SDS011;33903;44.704;10.448;2024-03-22T14:05:26;15.32;;;10.60;;
48114;SDS011;33903;44.704;10.448;2024-03-22T14:08:31;13.35;;;8.18;;
48114;SDS011;33903;44.704;10.448;2024-03-22T14:11:35;9.20;;;6.22;;
48114;SDS011;33903;44.704;10.448;2024-03-22T14:14:41;10.85;;;7.70;;
48114;SDS011;33903;44.704;10.448;2024-03-22T14:17:45;13.25;;;9.25;;
48114;SDS011;33903;44.704;10.448;2024-03-22T14:20:50;12.40;;;7.63;;
48114;SDS011;33903;44.704;10.448;2024-03-22T14:23:54;13.07;;;8.70;;
48114;SDS011;33903;44.704;10.448;2024-03-22T14:27:19;13.98;;;8.27;;
48114;SDS011;33903;44.704;10.448;2024-03-22T14:30:24;12.57;;;8.57;;
48114;SDS011;33903;44.704;10.448;2024-03-22T14:33:29;15.48;;;7.60;;
48114;SDS011;33903;44.704;10.448;2024-03-22T14:36:35;10.80;;;7.32;;
48114;SDS011;33903;44.704;10.448;2024-03-22T14:39:39;9.23;;;6.85;;
48114;SDS011;33903;44.704;10.448;2024-03-22T14:46:09;11.65;;;7.18;;
48114;SDS011;33903;44.704;10.448;2024-03-22T14:49:14;9.23;;;5.55;;
48114;SDS011;33903;44.704;10.448;2024-03-22T14:52:18;7.93;;;4.93;;
48114;SDS011;33903;44.704;10.448;2024-03-22T14:55:25;9.45;;;4.90;;
48114;SDS011;33903;44.704;10.448;2024-03-22T14:58:31;7.03;;;5.28;;
48114;SDS011;33903;44.704;10.448;2024-03-22T15:01:36;7.32;;;4.57;;
48114;SDS011;33903;44.704;10.448;2024-03-22T15:04:41;7.80;;;4.85;;
48114;SDS011;33903;44.704;10.448;2024-03-22T15:07:46;6.47;;;4.20;;
48114;SDS011;33903;44.704;10.448;2024-03-22T15:10:50;8.30;;;3.55;;
48114;SDS011;33903;44.704;10.448;2024-03-22T15:13:55;7.72;;;3.42;;
48114;SDS011;33903;44.704;10.448;2024-03-22T15:16:59;4.70;;;2.85;;
48114;SDS011;33903;44.704;10.448;2024-03-22T15:20:04;4.25;;;2.33;;
48114;SDS011;33903;44.704;10.448;2024-03-22T15:23:09;4.13;;;2.00;;
48114;SDS011;33903;44.704;10.448;2024-03-22T15:26:14;3.78;;;1.63;;
48114;SDS011;33903;44.704;10.448;2024-03-22T15:29:19;3.13;;;1.58;;
48114;SDS011;33903;44.704;10.448;2024-03-22T15:32:23;4.95;;;2.13;;
48114;SDS011;33903;44.704;10.448;2024-03-22T15:35:30;4.45;;;2.00;;
48114;SDS011;33903;44.704;10.448;2024-03-22T15:38:35;3.45;;;2.28;;
48114;SDS011;33903;44.704;10.448;2024-03-22T15:41:40;4.90;;;2.47;;
48114;SDS011;33903;44.704;10.448;2024-03-22T15:44:44;4.57;;;2.58;;
48114;SDS011;33903;44.704;10.448;2024-03-22T15:47:49;4.15;;;2.35;;
48114;SDS011;33903;44.704;10.448;2024-03-22T15:50:53;5.90;;;2.60;;
48114;SDS011;33903;44.704;10.448;2024-03-22T15:53:58;4.72;;;2.90;;
48114;SDS011;33903;44.704;10.448;2024-03-22T15:57:03;5.28;;;3.22;;
48114;SDS011;33903;44.704;10.448;2024-03-22T16:00:08;8.30;;;4.32;;
48114;SDS011;33903;44.704;10.448;2024-03-22T16:03:16;7.40;;;3.70;;
48114;SDS011;33903;44.704;10.448;2024-03-22T16:06:21;6.93;;;3.58;;
48114;SDS011;33903;44.704;10.448;2024-03-22T16:09:26;7.25;;;3.35;;
48114;SDS011;33903;44.704;10.448;2024-03-22T16:12:31;4.38;;;2.58;;
48114;SDS011;33903;44.704;10.448;2024-03-22T16:15:35;4.88;;;2.63;;
48114;SDS011;33903;44.704;10.448;2024-03-22T16:18:40;6.47;;;2.03;;
48114;SDS011;33903;44.704;10.448;2024-03-22T16:21:44;5.50;;;2.60;;
48114;SDS011;33903;44.704;10.448;2024-03-22T16:24:49;4.13;;;2.65;;
48114;SDS011;33903;44.704;10.448;2024-03-22T16:27:54;4.75;;;2.50;;
48114;SDS011;33903;44.704;10.448;2024-03-22T16:31:01;4.30;;;2.47;;
48114;SDS011;33903;44.704;10.448;2024-03-22T16:34:07;5.47;;;2.55;;
48114;SDS011;33903;44.704;10.448;2024-03-22T16:37:11;5.18;;;2.70;;
48114;SDS011;33903;44.704;10.448;2024-03-22T16:40:16;3.88;;;2.45;;
48114;SDS011;33903;44.704;10.448;2024-03-22T16:43:23;6.43;;;3.03;;
48114;SDS011;33903;44.704;10.448;2024-03-22T16:46:27;5.93;;;2.90;;
48114;SDS011;33903;44.704;10.448;2024-03-22T16:49:32;5.75;;;3.22;;
48114;SDS011;33903;44.704;10.448;2024-03-22T16:52:38;5.97;;;3.25;;
48114;SDS011;33903;44.704;10.448;2024-03-22T16:55:43;6.53;;;3.80;;
48114;SDS011;33903;44.704;10.448;2024-03-22T16:58:48;9.30;;;4.65;;
48114;SDS011;33903;44.704;10.448;2024-03-22T17:01:54;10.82;;;4.35;;
48114;SDS011;33903;44.704;10.448;2024-03-22T17:05:00;9.60;;;4.18;;
48114;SDS011;33903;44.704;10.448;2024-03-22T17:08:07;7.22;;;4.15;;
48114;SDS011;33903;44.704;10.448;2024-03-22T17:11:12;10.60;;;5.20;;
48114;SDS011;33903;44.704;10.448;2024-03-22T17:14:17;6.78;;;4.28;;
48114;SDS011;33903;44.704;10.448;2024-03-22T17:17:22;10.18;;;5.38;;
48114;SDS011;33903;44.704;10.448;2024-03-22T17:20:26;9.40;;;5.20;;
48114;SDS011;33903;44.704;10.448;2024-03-22T17:23:32;9.80;;;5.60;;
48114;SDS011;33903;44.704;10.448;2024-03-22T17:26:37;9.73;;;5.63;;
48114;SDS011;33903;44.704;10.448;2024-03-22T17:29:47;8.25;;;4.82;;
48114;SDS011;33903;44.704;10.448;2024-03-22T17:32:52;8.05;;;5.25;;
48114;SDS011;33903;44.704;10.448;2024-03-22T17:35:56;8.50;;;5.60;;
48114;SDS011;33903;44.704;10.448;2024-03-22T17:39:02;11.90;;;6.63;;
48114;SDS011;33903;44.704;10.448;2024-03-22T17:42:08;11.48;;;6.53;;
48114;SDS011;33903;44.704;10.448;2024-03-22T17:45:13;14.00;;;7.53;;
48114;SDS011;33903;44.704;10.448;2024-03-22T17:48:17;11.00;;;6.97;;
48114;SDS011;33903;44.704;10.448;2024-03-22T17:51:21;10.98;;;7.00;;
48114;SDS011;33903;44.704;10.448;2024-03-22T17:54:26;14.30;;;7.30;;
48114;SDS011;33903;44.704;10.448;2024-03-22T17:57:31;11.98;;;7.35;;
48114;SDS011;33903;44.704;10.448;2024-03-22T18:00:36;14.23;;;8.50;;